Time;durP1;ratioP1;P1;durP2;ratioP2;P2;SDS_P1;SDS_P2;PMS_P1;PMS_P2;Temp;Humidity;BMP_temperature;BMP_pressure;BME280_temperature;BME280_humidity;BME280_pressure;Samples;Min_cycle;Max_cycle;Signal;HPM_P1;HPM_P2
2022/12/20 00:01:29;;;;;;;426.58;301.30;;;;;;;3.56;78.23;101419.44;4154968;28;24512;-56
2022/12/20 00:03:31;;;;;;;424.20;295.38;;;;;;;3.48;78.21;101408.47;4164011;28;24515;-56
2022/12/20 00:05:36;;;;;;;425.35;295.88;;;;;;;3.51;77.88;101417.13;4157133;28;24512;-57
2022/12/20 00:07:38;;;;;;;415.70;268.50;;;;;;;3.54;78.06;101414.22;4156510;28;24536;-56
2022/12/20 00:09:40;;;;;;;431.42;320.02;;;;;;;3.57;78.32;101421.13;4161590;28;25033;-59
2022/12/20 00:11:43;;;;;;;428.27;308.63;;;;;;;3.58;78.32;101421.00;4167093;28;25031;-59
2022/12/20 00:13:46;;;;;;;429.73;312.42;;;;;;;3.59;77.99;101416.53;4178824;28;24514;-56
2022/12/20 00:15:50;;;;;;;434.02;324.58;;;;;;;3.55;77.99;101407.88;4159512;28;24488;-54
2022/12/20 00:17:52;;;;;;;430.30;315.73;;;;;;;3.55;78.18;101407.03;4170922;28;24536;-55
2022/12/20 00:19:54;;;;;;;430.33;318.35;;;;;;;3.58;78.23;101402.31;4179244;28;25004;-53
2022/12/20 00:21:56;;;;;;;425.90;306.20;;;;;;;3.60;78.09;101400.41;4169413;28;24507;-54
2022/12/20 00:23:59;;;;;;;430.60;318.30;;;;;;;3.60;77.98;101411.09;4175743;28;25055;-57
2022/12/20 00:26:03;;;;;;;430.70;320.30;;;;;;;3.60;78.21;101403.06;4155139;28;24535;-58
2022/12/20 00:28:06;;;;;;;425.02;307.08;;;;;;;3.63;77.60;101401.97;4163420;28;24567;-59
2022/12/20 00:30:09;;;;;;;424.90;304.52;;;;;;;3.64;77.86;101410.81;4162640;28;24528;-54
2022/12/20 00:32:13;;;;;;;423.98;300.13;;;;;;;3.63;77.89;101409.16;4161669;28;24519;-57
2022/12/20 00:34:15;;;;;;;421.58;293.35;;;;;;;3.62;77.66;101413.66;4167057;28;24997;-55
2022/12/20 00:36:18;;;;;;;421.48;293.33;;;;;;;3.57;77.81;101397.09;4169464;28;24507;-57
2022/12/20 00:38:21;;;;;;;351.73;125.67;;;;;;;3.47;78.01;101380.06;4175076;28;20290;-58
2022/12/20 00:40:24;;;;;;;353.33;124.80;;;;;;;3.34;78.18;101375.63;4163517;28;20650;-59
2022/12/20 00:42:26;;;;;;;351.40;121.82;;;;;;;3.25;78.53;101379.84;4164019;28;20709;-55
2022/12/20 00:44:28;;;;;;;356.58;130.15;;;;;;;3.20;78.87;101378.50;4164206;28;20652;-58
2022/12/20 00:46:33;;;;;;;351.98;120.45;;;;;;;3.16;79.82;101387.69;4173873;28;20317;-55
2022/12/20 00:48:36;;;;;;;352.92;123.30;;;;;;;3.08;80.05;101398.06;4179414;28;20309;-57
2022/12/20 00:50:39;;;;;;;356.23;126.95;;;;;;;3.11;80.08;101396.03;4166864;28;20306;-56
2022/12/20 00:52:41;;;;;;;354.37;127.97;;;;;;;3.06;80.41;101395.50;4162454;28;20303;-55
2022/12/20 00:54:43;;;;;;;354.67;126.43;;;;;;;3.03;80.71;101390.41;4174545;28;20724;-55
2022/12/20 00:56:45;;;;;;;349.17;120.60;;;;;;;2.97;80.92;101393.50;4176678;28;20314;-57
2022/12/20 00:58:49;;;;;;;351.10;122.75;;;;;;;2.99;80.67;101405.75;4169569;28;20717;-55
2022/12/20 01:00:52;;;;;;;356.45;132.27;;;;;;;2.98;81.02;101401.41;4178098;28;20234;-54
2022/12/20 01:02:54;;;;;;;406.83;236.80;;;;;;;3.04;81.07;101390.28;4177779;28;24550;-57
2022/12/20 01:04:57;;;;;;;413.45;258.83;;;;;;;3.12;80.72;101387.06;4164791;28;24946;-60
2022/12/20 01:07:00;;;;;;;409.67;259.88;;;;;;;3.23;80.22;101394.28;4163832;28;24508;-59
2022/12/20 01:09:02;;;;;;;410.85;261.98;;;;;;;3.33;79.87;101389.09;4155567;28;24526;-56
2022/12/20 01:11:07;;;;;;;418.58;285.25;;;;;;;3.33;79.25;101392.63;4159744;28;24511;-58
2022/12/20 01:13:09;;;;;;;412.87;267.53;;;;;;;3.45;79.30;101393.53;4151642;28;24557;-58
2022/12/20 01:15:12;;;;;;;419.70;283.48;;;;;;;3.46;79.37;101384.53;4160930;28;24555;-56
2022/12/20 01:17:14;;;;;;;413.92;272.50;;;;;;;3.49;78.90;101395.00;4170966;28;25056;-56
2022/12/20 01:19:18;;;;;;;414.40;273.48;;;;;;;3.53;78.70;101393.81;4177483;28;24522;-57
2022/12/20 01:21:23;;;;;;;412.15;265.75;;;;;;;3.50;78.86;101394.03;4161123;28;25234;-58
2022/12/20 01:23:25;;;;;;;350.63;130.68;;;;;;;3.43;78.99;101388.31;4162331;28;20298;-57
2022/12/20 01:25:28;;;;;;;352.85;134.93;;;;;;;3.39;79.15;101394.84;4156327;28;20726;-54
2022/12/20 01:27:30;;;;;;;350.50;124.70;;;;;;;3.31;79.61;101396.34;4161509;28;20287;-55
2022/12/20 01:29:32;;;;;;;352.60;126.40;;;;;;;3.21;80.03;101398.84;4163199;28;20749;-56
2022/12/20 01:31:34;;;;;;;354.38;129.40;;;;;;;3.17;80.27;101400.91;4169528;28;20313;-56
2022/12/20 01:33:37;;;;;;;354.98;129.65;;;;;;;3.06;80.38;101395.50;4166086;28;20279;-57
2022/12/20 01:35:40;;;;;;;361.50;138.93;;;;;;;3.08;80.60;101398.91;4162971;28;20667;-57
2022/12/20 01:37:44;;;;;;;355.50;128.05;;;;;;;3.04;80.65;101400.97;4179819;28;20281;-56
2022/12/20 01:39:46;;;;;;;356.42;132.85;;;;;;;3.01;81.27;101390.50;4179216;28;20306;-53
2022/12/20 01:41:48;;;;;;;355.27;129.20;;;;;;;2.97;81.29;101378.34;4178264;28;20253;-54
2022/12/20 01:43:52;;;;;;;357.10;131.68;;;;;;;2.90;81.47;101385.13;4177840;28;20294;-56
2022/12/20 01:45:55;;;;;;;357.80;135.63;;;;;;;2.89;81.54;101380.72;4140282;28;20238;-56
2022/12/20 01:47:58;;;;;;;360.15;136.93;;;;;;;2.88;81.72;101379.00;4178475;28;20281;-56
2022/12/20 01:50:02;;;;;;;360.95;141.55;;;;;;;2.86;81.72;101370.28;4171758;28;20306;-57
2022/12/20 01:52:08;;;;;;;357.65;135.93;;;;;;;2.85;81.66;101373.91;4157902;28;20295;-56
2022/12/20 01:54:16;;;;;;;356.38;135.95;;;;;;;2.84;81.92;101365.06;4162699;28;20288;-53
2022/12/20 01:56:19;;;;;;;355.60;132.90;;;;;;;2.85;82.06;101366.75;4172425;28;20799;-57
2022/12/20 01:58:21;;;;;;;360.98;141.48;;;;;;;2.86;82.08;101367.59;4176791;28;20305;-55
2022/12/20 02:00:24;;;;;;;361.92;146.45;;;;;;;2.86;82.12;101368.44;4176341;28;20322;-55
2022/12/20 02:02:26;;;;;;;363.05;151.48;;;;;;;2.87;82.29;101372.84;4178835;28;20253;-56
2022/12/20 02:04:29;;;;;;;359.13;142.75;;;;;;;2.90;82.50;101363.75;4178017;28;20623;-57
2022/12/20 02:06:31;;;;;;;356.60;139.60;;;;;;;2.87;82.04;101362.16;4160899;28;20633;-57
2022/12/20 02:08:35;;;;;;;361.10;144.40;;;;;;;2.82;82.06;101361.66;4161578;28;20593;-57
2022/12/20 02:10:49;;;;;;;363.80;150.68;;;;;;;2.86;82.43;101367.59;4162138;28;20326;-57
2022/12/20 02:12:57;;;;;;;366.58;151.88;;;;;;;2.85;82.43;101358.75;4161591;28;20753;-57
2022/12/20 02:15:08;;;;;;;364.10;141.55;;;;;;;2.84;82.52;101364.22;4161679;28;20274;-57
2022/12/20 02:17:19;;;;;;;359.52;137.05;;;;;;;2.84;82.67;101362.38;4162905;28;20492;-58
2022/12/20 02:19:40;;;;;;;364.13;143.18;;;;;;;2.83;82.41;101357.16;4160878;28;20311;-57
2022/12/20 02:21:43;;;;;;;363.90;142.55;;;;;;;2.83;82.62;101368.66;4158441;28;20686;-55
2022/12/20 02:24:14;;;;;;;365.40;148.68;;;;;;;2.84;82.76;101374.88;4159335;28;20265;-57
2022/12/20 02:26:31;;;;;;;369.05;159.02;;;;;;;2.87;82.52;101370.16;4161007;28;20305;-56
2022/12/20 02:28:46;;;;;;;367.60;156.30;;;;;;;2.83;82.47;101371.34;4178600;28;20245;-58
2022/12/20 02:30:54;;;;;;;362.17;141.48;;;;;;;2.80;82.79;101371.56;4173514;28;20661;-56
2022/12/20 02:33:00;;;;;;;361.17;143.40;;;;;;;2.83;82.58;101366.00;4169450;28;20229;-59
2022/12/20 02:35:02;;;;;;;363.92;144.05;;;;;;;2.85;82.77;101361.44;4174951;28;20318;-57
2022/12/20 02:37:05;;;;;;;415.85;259.15;;;;;;;2.87;82.51;101346.16;4176892;28;24509;-59
2022/12/20 02:39:10;;;;;;;415.42;266.92;;;;;;;3.12;82.03;101355.03;4175835;28;24547;-59
2022/12/20 02:41:15;;;;;;;412.77;266.67;;;;;;;3.22;81.35;101344.50;4160975;28;24563;-58
2022/12/20 02:45:35;;;;;;;408.87;259.47;;;;;;;3.38;80.41;101347.72;4157437;28;25011;-59
2022/12/20 02:47:45;;;;;;;412.40;270.20;;;;;;;3.47;80.44;101343.53;4160303;28;24527;-58
2022/12/20 02:49:48;;;;;;;404.50;247.75;;;;;;;3.51;80.01;101333.44;4159124;28;25396;-58
2022/12/20 02:51:52;;;;;;;411.10;272.77;;;;;;;3.47;79.50;101337.34;4159130;28;25057;-58
2022/12/20 02:53:55;;;;;;;410.88;271.75;;;;;;;3.51;79.47;101341.47;4160859;28;25067;-60
2022/12/20 02:56:02;;;;;;;413.92;279.75;;;;;;;3.51;79.21;101331.66;4156945;28;25079;-59
2022/12/20 02:58:07;;;;;;;410.40;272.13;;;;;;;3.53;79.24;101326.19;4176388;28;24551;-58
2022/12/20 03:00:11;;;;;;;409.90;277.00;;;;;;;3.53;79.22;101324.38;4179557;28;24901;-58
2022/12/20 03:02:14;;;;;;;409.38;267.13;;;;;;;3.49;79.16;101322.88;4177486;28;24669;-60
2022/12/20 03:04:18;;;;;;;406.45;257.70;;;;;;;3.57;79.51;101320.50;4173721;28;24543;-59
2022/12/20 03:06:21;;;;;;;404.20;250.52;;;;;;;3.61;79.46;101329.13;4170760;28;25043;-59
2022/12/20 03:08:25;;;;;;;402.02;247.38;;;;;;;3.60;79.44;101319.41;4178943;28;24547;-60
2022/12/20 03:10:27;;;;;;;406.35;256.40;;;;;;;3.58;79.01;101319.50;4176717;28;25124;-59
2022/12/20 03:12:30;;;;;;;401.98;245.45;;;;;;;3.60;78.99;101316.72;4174237;28;24523;-59
2022/12/20 03:14:33;;;;;;;404.90;254.33;;;;;;;3.56;78.52;101307.25;4162292;28;24474;-59
2022/12/20 03:16:37;;;;;;;409.50;270.48;;;;;;;3.49;78.95;101309.53;4174022;28;25039;-58
2022/12/20 03:18:39;;;;;;;402.05;243.75;;;;;;;3.50;79.22;101315.75;4150853;28;24985;-59
2022/12/20 03:20:43;;;;;;;403.83;251.07;;;;;;;3.49;79.15;101317.53;4162080;28;25041;-59
2022/12/20 03:22:46;;;;;;;400.60;242.57;;;;;;;3.52;79.17;101311.13;4164052;28;25028;-59
2022/12/20 03:24:48;;;;;;;399.35;238.82;;;;;;;3.55;79.40;101302.88;4164435;28;24504;-59
2022/12/20 03:26:51;;;;;;;400.15;241.20;;;;;;;3.52;79.38;101297.78;4151353;28;24973;-59
2022/12/20 03:28:55;;;;;;;397.88;233.48;;;;;;;3.55;79.34;101303.72;4163477;28;25044;-58
2022/12/20 03:31:01;;;;;;;398.20;233.02;;;;;;;3.58;79.48;101314.16;4162187;28;24511;-57
2022/12/20 03:33:07;;;;;;;409.15;263.48;;;;;;;3.68;79.22;101308.97;4162792;28;24546;-58
2022/12/20 03:35:10;;;;;;;412.52;271.33;;;;;;;3.64;79.20;101295.97;4160933;28;24546;-60
2022/12/20 03:37:17;;;;;;;403.73;249.45;;;;;;;3.67;78.98;101307.28;4162465;28;24535;-59
2022/12/20 03:39:19;;;;;;;403.60;246.52;;;;;;;3.72;79.08;101297.09;4163433;28;24858;-59
2022/12/20 03:41:22;;;;;;;406.25;251.18;;;;;;;3.68;78.90;101297.44;4160955;28;24511;-59
2022/12/20 03:43:24;;;;;;;395.90;244.82;;;;;;;3.72;79.03;101301.59;4162976;28;25211;-59
2022/12/20 03:45:26;;;;;;;391.83;218.38;;;;;;;3.74;78.82;101303.16;4161826;28;24523;-55
2022/12/20 03:47:29;;;;;;;401.85;260.05;;;;;;;3.77;78.80;101302.91;4162579;28;24965;-58
2022/12/20 03:49:31;;;;;;;383.83;212.82;;;;;;;3.81;78.69;101316.91;4162000;28;24530;-58
2022/12/20 03:51:34;;;;;;;395.85;246.25;;;;;;;3.84;78.67;101323.81;4160671;28;24978;-57
2022/12/20 03:53:38;;;;;;;378.77;202.68;;;;;;;3.85;78.54;101326.38;4157496;28;24527;-59
2022/12/20 03:55:41;;;;;;;592.92;538.28;;;;;;;3.91;78.61;101320.53;4155457;28;24867;-58
2022/12/20 03:57:43;;;;;;;438.27;305.73;;;;;;;3.94;78.37;101331.00;4147053;28;20288;-56
2022/12/20 04:00:07;;;;;;;425.97;254.33;;;;;;;3.86;78.53;101317.38;4162161;28;20748;-59
2022/12/20 04:02:16;;;;;;;420.03;243.13;;;;;;;3.84;79.01;101313.13;4166752;28;20733;-57
2022/12/20 04:04:19;;;;;;;407.57;230.03;;;;;;;3.76;79.30;101309.25;4180724;28;21249;-59
2022/12/20 04:06:22;;;;;;;403.87;207.17;;;;;;;3.74;79.38;101310.31;4179030;28;20740;-59
2022/12/20 04:08:26;;;;;;;397.67;185.80;;;;;;;3.73;79.54;101316.63;4178990;28;21258;-59
2022/12/20 04:10:30;;;;;;;385.63;161.93;;;;;;;3.69;79.73;101296.47;4165404;28;20760;-58
2022/12/20 04:12:32;;;;;;;385.93;174.30;;;;;;;3.66;79.91;101294.88;4178808;28;21058;-56
2022/12/20 04:14:36;;;;;;;407.10;251.68;;;;;;;3.69;79.87;101302.66;4167778;28;24523;-59
2022/12/20 04:16:38;;;;;;;438.27;343.88;;;;;;;3.84;79.61;101316.66;4160357;28;24511;-59
2022/12/20 04:18:41;;;;;;;388.60;222.63;;;;;;;3.94;78.99;101296.25;4148846;28;24539;-58
2022/12/20 04:20:44;;;;;;;792.45;730.17;;;;;;;4.10;78.56;101322.63;4158436;28;24515;-59
2022/12/20 04:22:56;;;;;;;960.63;892.22;;;;;;;4.24;77.56;101305.50;4171614;28;24526;-59
2022/12/20 04:24:59;;;;;;;736.90;674.07;;;;;;;4.25;77.58;101311.72;4173394;28;20293;-59
2022/12/20 04:27:07;;;;;;;741.37;678.30;;;;;;;4.22;77.71;101307.44;4166568;28;20891;-60
2022/12/20 04:29:10;;;;;;;696.13;634.40;;;;;;;4.13;77.82;101298.31;4177557;28;20206;-56
2022/12/20 04:31:12;;;;;;;683.97;622.53;;;;;;;4.06;78.23;101293.59;4163605;28;20319;-59
2022/12/20 04:33:15;;;;;;;640.40;579.87;;;;;;;3.97;78.47;101274.63;4164474;28;20294;-58
2022/12/20 04:35:18;;;;;;;682.60;621.00;;;;;;;3.93;78.70;101281.22;4160737;28;20310;-58
2022/12/20 04:37:21;;;;;;;682.10;620.80;;;;;;;3.93;78.81;101291.91;4156544;28;20319;-58
2022/12/20 04:39:28;;;;;;;609.30;552.93;;;;;;;3.92;79.15;101284.00;4169364;28;20316;-59
2022/12/20 04:41:50;;;;;;;495.83;441.23;;;;;;;3.88;79.26;101272.69;4161383;28;20789;-58
2022/12/20 04:43:55;;;;;;;425.60;268.93;;;;;;;3.82;79.33;101272.31;4167126;28;20294;-57
2022/12/20 04:46:00;;;;;;;421.17;251.57;;;;;;;3.78;79.41;101274.38;4159183;28;20730;-57
2022/12/20 04:48:03;;;;;;;442.87;305.67;;;;;;;3.76;79.83;101295.88;4162953;28;20717;-58
2022/12/20 04:50:12;;;;;;;436.33;294.90;;;;;;;3.69;79.93;101294.66;4159788;28;20246;-58
2022/12/20 04:54:36;;;;;;;430.90;279.10;;;;;;;3.59;80.08;101283.81;4160753;28;20342;-56
2022/12/20 04:56:48;;;;;;;434.27;295.60;;;;;;;3.57;80.36;101277.75;4155783;28;20741;-58
2022/12/20 04:58:58;;;;;;;430.47;276.63;;;;;;;3.54;80.52;101278.00;4167199;28;20713;-56
2022/12/20 05:01:01;;;;;;;482.20;429.40;;;;;;;3.63;80.46;101281.75;4160285;28;21602;-59
2022/12/20 05:03:13;;;;;;;435.77;296.67;;;;;;;3.63;80.12;101283.59;4170523;28;20303;-57
2022/12/20 05:05:16;;;;;;;438.27;307.77;;;;;;;3.62;80.23;101288.09;4170066;28;20737;-59
2022/12/20 05:07:24;;;;;;;434.27;289.27;;;;;;;3.61;80.34;101297.91;4168341;28;20732;-57
2022/12/20 05:09:29;;;;;;;432.20;277.80;;;;;;;3.56;80.40;101288.56;4163222;28;20797;-59
2022/12/20 05:11:31;;;;;;;433.17;280.53;;;;;;;3.56;80.66;101273.38;4177133;28;21266;-58
2022/12/20 05:13:33;;;;;;;434.53;291.93;;;;;;;3.57;80.94;101264.41;4161665;28;20713;-56
2022/12/20 05:15:38;;;;;;;434.30;290.37;;;;;;;3.57;80.70;101266.22;4161242;28;20741;-57
2022/12/20 05:17:41;;;;;;;434.70;298.63;;;;;;;3.53;80.90;101268.28;4161408;28;20733;-58
2022/12/20 05:19:43;;;;;;;436.47;298.47;;;;;;;3.56;80.86;101268.03;4160810;28;20708;-58
2022/12/20 05:26:51;;;;;;;434.00;288.57;;;;;;;3.60;81.11;101273.97;4147514;28;21395;-59
2022/12/20 05:28:54;;;;;;;431.40;297.37;;;;;;;3.62;80.87;101269.41;4156875;28;20298;-58
2022/12/20 05:30:58;;;;;;;442.40;318.13;;;;;;;3.55;80.94;101290.38;4163350;28;20751;-57
2022/12/20 05:33:01;;;;;;;444.27;327.77;;;;;;;3.59;80.84;101273.16;4165046;28;21247;-58
2022/12/20 05:35:05;;;;;;;440.67;295.23;;;;;;;3.54;80.82;101267.31;4173957;28;20753;-59
2022/12/20 05:37:09;;;;;;;442.17;312.37;;;;;;;3.57;80.95;101264.41;4173679;28;20736;-61
2022/12/20 05:39:13;;;;;;;436.47;294.87;;;;;;;3.55;81.15;101265.47;4174613;28;20708;-60
2022/12/20 05:41:18;;;;;;;433.87;278.03;;;;;;;3.55;81.23;101271.66;4170342;28;20303;-58
2022/12/20 05:43:24;;;;;;;437.13;295.90;;;;;;;3.59;81.29;101267.81;4158697;28;20720;-60
2022/12/20 05:45:26;;;;;;;442.17;306.50;;;;;;;3.61;81.21;101267.69;4159934;28;20746;-59
2022/12/20 05:47:37;;;;;;;439.20;303.30;;;;;;;3.58;81.26;101270.59;4160387;28;20302;-61
2022/12/20 05:49:43;;;;;;;445.23;325.90;;;;;;;3.64;81.17;101264.78;4167808;28;21068;-59
2022/12/20 05:51:46;;;;;;;444.83;326.80;;;;;;;3.63;81.32;101256.88;4162702;28;21465;-58
2022/12/20 05:54:00;;;;;;;442.70;306.37;;;;;;;3.66;81.28;101253.97;4157866;28;20613;-56
2022/12/20 05:56:16;;;;;;;449.10;339.03;;;;;;;3.65;81.17;101247.75;4156791;28;20783;-59
2022/12/20 05:58:19;;;;;;;447.87;333.40;;;;;;;3.67;81.28;101248.50;4173283;28;20709;-59
2022/12/20 06:00:28;;;;;;;450.30;338.37;;;;;;;3.65;81.01;101261.13;4168232;28;20356;-59
2022/12/20 06:02:31;;;;;;;447.67;330.93;;;;;;;3.76;81.14;101260.28;4169639;28;20725;-60
2022/12/20 06:04:40;;;;;;;446.83;330.17;;;;;;;3.75;81.06;101255.94;4157456;28;20290;-58
2022/12/20 06:06:51;;;;;;;446.13;326.33;;;;;;;3.75;81.22;101255.94;4170547;28;20321;-56
2022/12/20 06:08:56;;;;;;;447.13;328.77;;;;;;;3.74;81.21;101249.72;4168659;28;20339;-58
2022/12/20 06:11:13;;;;;;;447.83;332.50;;;;;;;3.76;81.50;101252.25;4176621;28;20301;-58
2022/12/20 06:13:30;;;;;;;443.03;318.70;;;;;;;3.77;81.56;101259.31;4168913;28;20301;-54
2022/12/20 06:15:34;;;;;;;442.30;310.00;;;;;;;3.78;81.40;101263.69;4164090;28;20645;-58
2022/12/20 06:17:37;;;;;;;523.78;469.73;;;;;;;3.86;81.34;101257.75;4166175;28;24522;-57
2022/12/20 06:19:41;;;;;;;552.60;498.17;;;;;;;4.08;80.61;101251.56;4175069;28;24546;-56
2022/12/20 06:21:45;;;;;;;578.63;523.83;;;;;;;4.29;79.62;101252.50;4157495;28;24503;-58
2022/12/20 06:23:49;;;;;;;612.95;557.40;;;;;;;4.43;78.89;101261.25;4152140;28;24526;-56
2022/12/20 06:25:53;;;;;;;449.43;353.60;;;;;;;4.50;78.34;101265.13;4167805;28;20313;-55
2022/12/20 06:27:57;;;;;;;450.70;340.80;;;;;;;4.44;78.78;101265.63;4174710;28;20309;-60
2022/12/20 06:29:59;;;;;;;445.23;319.83;;;;;;;4.38;79.27;101274.16;4156648;28;20797;-58
2022/12/20 06:32:09;;;;;;;440.60;303.30;;;;;;;4.28;79.29;101268.69;4165824;28;20305;-56
2022/12/20 06:34:13;;;;;;;440.33;305.97;;;;;;;4.24;79.75;101275.25;4176945;28;20290;-59
2022/12/20 06:36:18;;;;;;;440.13;306.57;;;;;;;4.23;79.92;101284.22;4174912;28;21083;-57
2022/12/20 06:38:21;;;;;;;434.60;280.77;;;;;;;4.12;79.94;101264.56;4167254;28;20717;-57
2022/12/20 06:40:23;;;;;;;436.90;296.87;;;;;;;4.08;80.10;101270.28;4163467;28;20730;-56
2022/12/20 06:42:26;;;;;;;443.53;321.20;;;;;;;4.02;80.17;101281.44;4174531;28;20302;-58
2022/12/20 06:44:28;;;;;;;443.27;326.70;;;;;;;4.01;80.42;101272.56;4175690;28;20729;-58
2022/12/20 06:46:30;;;;;;;440.07;312.83;;;;;;;4.00;80.55;101281.56;4177603;28;21306;-57
2022/12/20 06:48:33;;;;;;;442.97;306.57;;;;;;;4.01;80.77;101291.28;4178924;28;20728;-55
2022/12/20 06:50:35;;;;;;;460.73;367.60;;;;;;;3.99;80.79;101284.38;4167331;28;20330;-56
2022/12/20 06:52:39;;;;;;;457.17;341.50;;;;;;;3.96;80.72;101283.63;4176672;28;20668;-56
2022/12/20 06:54:41;;;;;;;467.53;371.77;;;;;;;3.99;81.05;101284.38;4171546;28;20223;-59
2022/12/20 06:56:44;;;;;;;464.53;376.20;;;;;;;4.02;81.29;101292.13;4169363;28;20255;-58
2022/12/20 06:58:47;;;;;;;435.50;292.27;;;;;;;4.01;81.22;101304.63;4176487;28;20290;-58
2022/12/20 07:00:50;;;;;;;435.03;290.23;;;;;;;4.06;81.41;101296.25;4177618;28;20745;-56
2022/12/20 07:02:52;;;;;;;435.63;300.47;;;;;;;4.04;81.30;101296.38;4179436;28;20677;-57
2022/12/20 07:04:54;;;;;;;441.50;314.30;;;;;;;4.03;81.06;101288.47;4179222;28;20692;-58
2022/12/20 07:06:57;;;;;;;438.70;316.63;;;;;;;4.05;81.71;101291.91;4176545;28;20757;-57
2022/12/20 07:09:01;;;;;;;437.90;310.80;;;;;;;4.05;81.52;101283.88;4178735;28;20736;-57
2022/12/20 07:11:05;;;;;;;324.43;210.90;;;;;;;4.11;81.79;101294.09;4171888;28;21270;-57
2022/12/20 07:13:08;;;;;;;434.60;294.00;;;;;;;4.08;81.48;101287.16;4175358;28;20741;-58
2022/12/20 07:15:10;;;;;;;444.47;327.77;;;;;;;4.07;81.54;101287.28;4177718;28;20848;-57
2022/12/20 07:17:13;;;;;;;440.33;317.50;;;;;;;4.05;81.60;101276.72;4177549;28;20626;-56
2022/12/20 07:19:15;;;;;;;439.27;314.00;;;;;;;4.06;81.91;101274.88;4165340;28;21247;-57
2022/12/20 07:21:18;;;;;;;441.97;325.73;;;;;;;4.03;81.89;101285.81;4164365;28;20741;-57
2022/12/20 07:23:20;;;;;;;448.63;345.93;;;;;;;4.11;82.39;101283.41;4165305;28;21091;-59
2022/12/20 07:25:24;;;;;;;449.57;352.03;;;;;;;4.11;81.92;101288.75;4160680;28;20303;-56
2022/12/20 07:27:26;;;;;;;436.87;304.80;;;;;;;4.10;81.96;101287.03;4158454;28;20624;-59
2022/12/20 07:29:29;;;;;;;416.03;268.57;;;;;;;4.10;81.93;101289.72;4165691;28;20745;-58
2022/12/20 07:31:31;;;;;;;395.80;226.97;;;;;;;4.11;81.93;101289.59;4165683;28;21256;-59
2022/12/20 07:33:34;;;;;;;392.43;207.77;;;;;;;4.11;82.22;101289.59;4166452;28;20794;-56
2022/12/20 07:35:36;;;;;;;405.53;237.80;;;;;;;4.11;82.34;101291.41;4164926;28;20741;-58
2022/12/20 07:37:38;;;;;;;404.97;236.73;;;;;;;4.21;82.49;101303.06;4166712;28;21053;-56
2022/12/20 07:39:41;;;;;;;402.87;223.43;;;;;;;4.22;82.78;101304.78;4168277;28;21049;-58
2022/12/20 07:41:45;;;;;;;400.33;214.67;;;;;;;4.18;82.52;101305.97;4166374;28;20741;-54
2022/12/20 07:43:52;;;;;;;388.13;191.20;;;;;;;4.21;82.56;101304.91;4164710;28;20740;-55
2022/12/20 07:45:55;;;;;;;382.73;184.30;;;;;;;4.28;82.59;101308.81;4166347;28;20744;-58
2022/12/20 07:47:57;;;;;;;388.27;197.00;;;;;;;4.36;82.85;101302.81;4156272;28;20712;-56
2022/12/20 07:50:00;;;;;;;373.87;167.03;;;;;;;4.37;82.72;101301.84;4164210;28;20744;-58
2022/12/20 07:52:03;;;;;;;373.40;169.93;;;;;;;4.29;82.53;101294.44;4164635;28;21310;-56
2022/12/20 07:54:09;;;;;;;361.20;146.60;;;;;;;4.35;82.88;101298.47;4166823;28;20786;-57
2022/12/20 07:56:13;;;;;;;368.97;158.60;;;;;;;4.37;82.76;101309.88;4162369;28;21270;-59
2022/12/20 07:58:17;;;;;;;359.43;147.03;;;;;;;4.41;82.97;101311.34;4164131;28;20717;-59
2022/12/20 08:00:20;;;;;;;367.57;153.93;;;;;;;4.39;82.70;101307.91;4166970;28;20740;-54
2022/12/20 08:02:26;;;;;;;357.10;140.90;;;;;;;4.35;82.76;101299.28;4168007;28;20708;-58
2022/12/20 08:04:29;;;;;;;349.17;139.87;;;;;;;4.39;83.08;101311.47;4164434;28;20721;-58
2022/12/20 08:06:32;;;;;;;323.80;138.27;;;;;;;4.39;83.13;101299.91;4165749;28;20729;-59
2022/12/20 08:08:36;;;;;;;340.27;144.43;;;;;;;4.41;83.43;101296.13;4168345;28;21266;-55
2022/12/20 08:10:40;;;;;;;344.17;151.17;;;;;;;4.42;83.56;101297.84;4155389;28;20740;-57
2022/12/20 08:12:44;;;;;;;381.47;207.03;;;;;;;4.43;83.34;101304.88;4166594;28;20777;-56
2022/12/20 08:14:47;;;;;;;385.60;208.27;;;;;;;4.49;83.59;101312.41;4176706;28;20712;-59
2022/12/20 08:16:50;;;;;;;390.47;209.10;;;;;;;4.54;83.62;101313.88;4178061;28;20729;-59
2022/12/20 08:18:52;;;;;;;392.53;209.17;;;;;;;4.53;83.57;101310.34;4164835;28;20606;-60
2022/12/20 08:20:54;;;;;;;500.40;445.50;;;;;;;4.58;83.63;101307.31;4164009;28;20733;-55
2022/12/20 08:22:57;;;;;;;449.83;324.80;;;;;;;4.54;83.36;101313.88;4164961;28;20287;-58
2022/12/20 08:24:59;;;;;;;391.30;199.13;;;;;;;4.59;83.40;101315.22;4162912;28;20290;-60
2022/12/20 08:27:01;;;;;;;390.40;196.60;;;;;;;4.54;83.32;101308.53;4153458;28;20710;-58
2022/12/20 08:29:03;;;;;;;398.70;223.97;;;;;;;4.56;83.49;101298.53;4164409;28;20713;-55
2022/12/20 08:31:11;;;;;;;397.07;216.23;;;;;;;4.58;83.52;101305.47;4163999;28;20737;-59
2022/12/20 08:33:13;;;;;;;388.37;190.00;;;;;;;4.60;83.58;101300.84;4146305;28;21314;-56
2022/12/20 08:35:15;;;;;;;386.57;192.60;;;;;;;4.61;83.77;101302.56;4163955;28;20745;-56
2022/12/20 08:37:18;;;;;;;384.57;182.33;;;;;;;4.59;83.76;101299.16;4164892;28;21053;-55
2022/12/20 08:39:20;;;;;;;384.97;187.67;;;;;;;4.63;83.69;101295.25;4165922;28;20630;-60
2022/12/20 08:41:23;;;;;;;390.47;203.20;;;;;;;4.67;83.94;101287.81;4151614;28;20745;-57
2022/12/20 08:43:25;;;;;;;385.10;189.63;;;;;;;4.62;83.45;101282.84;4165240;28;20725;-54
2022/12/20 08:45:28;;;;;;;377.23;165.70;;;;;;;4.49;83.07;101277.63;4163777;28;20746;-57
2022/12/20 08:47:31;;;;;;;385.67;195.20;;;;;;;4.55;83.41;101280.81;4165573;28;20705;-56
2022/12/20 08:49:33;;;;;;;385.57;186.00;;;;;;;4.54;83.28;101282.63;4163588;28;20713;-54
2022/12/20 08:51:36;;;;;;;390.20;201.87;;;;;;;4.52;83.49;101281.91;4162945;28;21092;-56
2022/12/20 08:53:38;;;;;;;385.73;198.03;;;;;;;4.57;83.74;101300.25;4164541;28;21302;-57
2022/12/20 08:55:41;;;;;;;388.73;200.73;;;;;;;4.63;83.80;101299.75;4158985;28;20754;-56
2022/12/20 08:57:43;;;;;;;384.23;183.57;;;;;;;4.63;83.89;101311.31;4163966;28;20697;-58
2022/12/20 08:59:45;;;;;;;382.70;183.17;;;;;;;4.64;84.20;101301.44;4163398;28;20634;-56
2022/12/20 09:01:48;;;;;;;381.63;185.13;;;;;;;4.68;84.54;101302.91;4163338;28;20661;-55
2022/12/20 09:03:52;;;;;;;381.97;185.57;;;;;;;4.69;84.38;101310.81;4163892;28;20725;-57
2022/12/20 09:05:54;;;;;;;373.07;172.23;;;;;;;4.71;84.12;101299.13;4162964;28;20725;-53
2022/12/20 09:07:56;;;;;;;382.27;187.87;;;;;;;4.66;83.87;101295.00;4164097;28;20686;-54
2022/12/20 09:09:58;;;;;;;385.90;196.43;;;;;;;4.66;83.83;101294.16;4162791;28;20800;-58
2022/12/20 09:12:00;;;;;;;390.37;207.30;;;;;;;4.68;84.02;101284.16;4163259;28;20706;-57
2022/12/20 09:14:03;;;;;;;397.53;233.07;;;;;;;4.69;84.04;101293.91;4168229;28;20741;-56
2022/12/20 09:16:06;;;;;;;385.53;197.33;;;;;;;4.65;83.91;101285.25;4177642;28;21341;-58
2022/12/20 09:18:09;;;;;;;386.23;192.77;;;;;;;4.67;83.90;101271.75;4179583;28;20720;-56
2022/12/20 09:20:13;;;;;;;390.47;205.57;;;;;;;4.68;84.22;101274.31;4178614;28;21204;-56
2022/12/20 09:22:16;;;;;;;382.90;180.60;;;;;;;4.67;84.48;101277.09;4179587;28;21269;-58
2022/12/20 09:24:18;;;;;;;384.70;195.53;;;;;;;4.69;84.63;101270.66;4179672;28;20657;-56
2022/12/20 09:26:21;;;;;;;385.33;189.50;;;;;;;4.73;84.40;101281.13;4154640;28;20730;-57
2022/12/20 09:28:24;;;;;;;383.20;188.43;;;;;;;4.72;84.43;101277.59;4150578;28;21260;-56